Urb La Inmaculada, Puerto Rico
Current Conditions -  °F | °C
As of 10:08 AM on Saturday 22 Nov 2014 (Local Time) from TJNR Reporting Station
Light Rain Light Rain  
Wind Chill: 80°   Ceiling: 2700
Heat Index: 85°   Visibility: 5mi
Dew Point: 74°   Wind: 12mph
Humidity: 81%   Direction: 100°E
Pressure: 30.08"   Gusts: NA
Location:  18.1853°N, 65.8667°W
Report Text: TJNR 221408Z AUTO 10010KT 5SM -RA SCT022 BKN027 BKN037 27/23 A3008 RMK AO2 RAB06 P0001 T02670233 $
Loading
Personal Weather Stations






























Interactive Weather Map New forecast layout! Learn more

10-Day Weather Forecast

Advertisements
Track Severe Weather on mobile